Flight Track Log - Related Links

Times and Time Zones

All times are in EDT time to prevent confusion due to time zone crossing. See the N5317D flight status page for this flight to view local times or setup timezone preferences in your user account.

Time Position Orientation Groundspeed Altitude Reporting Facility
EDT Latitude Longitude Course Direction KTS MPH feet Rate Location/Type
Sun 06:42:00 PM 38.3240 -92.5497 26° Northeast  Level Estimated
Sun 06:43:00 PM 38.3596 -92.5278 26° Northeast  Level Estimated
Sun 06:44:00 PM 38.3952 -92.5059 26° Northeast  Level Estimated
Sun 06:45:00 PM 38.4307 -92.4839 26° Northeast  Level Estimated
Sun 06:46:00 PM 38.4663 -92.4620 26° Northeast  Level Estimated
Sun 06:47:00 PM 38.5019 -92.4400 26° Northeast  Level Estimated
Sun 06:48:00 PM 38.5374 -92.4180 26° Northeast  Level Estimated
Sun 06:49:00 PM 38.5730 -92.3960 26° Northeast  Level Estimated
Sun 06:50:00 PM 38.6085 -92.3739 26° Northeast  Level Estimated
Sun 06:51:00 PM 38.6441 -92.3518 26° Northeast  Level Estimated
Sun 06:52:00 PM 38.6796 -92.3298 26° Northeast  Level Estimated
Sun 06:53:00 PM 38.7152 -92.3076 26° Northeast  Level Estimated
Sun 06:54:00 PM 38.7507 -92.2855 26° Northeast  Level Estimated
Sun 06:55:00 PM 38.7862 -92.2634 26° Northeast  Level Estimated
Sun 06:56:00 PM 38.8218 -92.2412 26° Northeast  Level Estimated
Sun 06:57:00 PM 38.8573 -92.2190 26° Northeast  Level Estimated
Sun 06:58:00 PM 38.8928 -92.1968 26° Northeast  Level Estimated
Sun 06:59:00 PM 38.9283 -92.1745 26° Northeast  Level Estimated
Sun 07:00:00 PM 38.9638 -92.1523 26° Northeast  Level Estimated
Sun 07:01:00 PM 38.9993 -92.1300 26° Northeast  Level Estimated
Sun 07:02:00 PM 39.0348 -92.1077 26° Northeast  Level Estimated
Sun 07:03:00 PM 39.0703 -92.0853 26° Northeast  Level Estimated
Sun 07:04:00 PM 39.1058 -92.0630 26° Northeast  Level Estimated
Sun 07:05:00 PM 39.1413 -92.0406 26° Northeast  Level Estimated
Sun 07:06:00 PM 39.1768 -92.0182 26° Northeast  Level Estimated
Sun 07:07:00 PM 39.2122 -91.9958 26° Northeast  Level Estimated
Sun 07:08:00 PM 39.2477 -91.9733 26° Northeast  Level Estimated
Sun 07:09:00 PM 39.2832 -91.9509 26° Northeast  Level Estimated
Sun 07:10:00 PM 39.3187 -91.9284 26° Northeast  Level Estimated
Sun 07:11:00 PM 39.3541 -91.9059 26° Northeast  Level Estimated
Sun 07:12:00 PM 39.3896 -91.8833 26° Northeast  Level Estimated
Sun 07:13:00 PM 39.4250 -91.8607 26° Northeast  Level Estimated
Sun 07:14:00 PM 39.4605 -91.8382 26° Northeast  Level Estimated
Sun 07:15:00 PM 39.4959 -91.8156 26° Northeast  Level Estimated
Sun 07:16:00 PM 39.5314 -91.7929 26° Northeast  Level Estimated
Sun 07:17:00 PM 39.5668 -91.7703 26° Northeast  Level Estimated
Sun 07:18:00 PM 39.6022 -91.7476 26° Northeast  Level Estimated
Sun 07:19:00 PM 39.6344 -91.7270 26° Northeast  Level Estimated
Sun 07:20:00 PM 39.6344 -91.7270 283° West  Level Estimated
Sun 07:21:00 PM 39.6344 -91.7270 283° West  Level Estimated
Sun 07:22:00 PM 39.6344 -91.7270 283° West  Level Estimated
Sun 07:23:00 PM 39.6344 -91.7270 283° West  Level Estimated
Sun 07:24:00 PM 39.6344 -91.7270 283° West  Level Estimated
Sun 07:25:00 PM 39.6344 -91.7270 283° West  Level Estimated
Sun 07:26:00 PM 39.6344 -91.7270 283° West  Level Estimated
Sun 07:27:00 PM 39.6344 -91.7270 283° West  Level Estimated
Sun 07:28:00 PM 39.6344 -91.7270 283° West  Level Estimated
Sun 07:29:00 PM 39.6344 -91.7270 283° West  Level Estimated
Sun 07:30:00 PM 39.6344 -91.7270 283° West  Level Estimated
Sun 07:31:00 PM 39.6344 -91.7270 283° West  Level Estimated
Sun 07:32:00 PM 39.6344 -91.7270 283° West  Level Estimated
Sun 07:33:00 PM 39.6344 -91.7270 283° West  Level Estimated
Sun 07:34:00 PM 39.6344 -91.7270 283° West  Level Estimated
Sun 07:35:00 PM 39.6344 -91.7270 283° West  Level Estimated

Login

Don't have an account? Register now (free) for customized features, flight alerts, and more!